Terminal Aerodrome Forecast
Issued by NWS

Home | Current Version | Previous Version | Text Only | Print | Product List | Glossary On
Versions: 1 2 3 4 5 6 7 8 9 10 11 12 13 14 15 16 17 18 19 20 21 22 23 24 25 26 27 28 29 30 31 32 33 34 35 36 37 38 39
000
FTUS46 KOTX 280526
TAFCOE
TAF
KCOE 280526Z 2806/2906 15006KT P6SM VCSH BKN060 BKN100
     FM280800 18005KT P6SM SCT040 OVC080
     FM281300 20006KT P6SM BKN040 OVC060
     FM281800 20007G12KT P6SM BKN050 PROB30 2820/2824 -SHRA
     FM290300 17005KT P6SM SCT060 SCT200=

USA.gov is the U.S. government's official web portal to all federal, state and local government web resources and services.